Messwerte Capo Bellavista

Temperatur

Temperatur
°C
1575694800 6.00 6.00 14
1575698400 7.00 7.00 14
1575702000 8.00 8.00 13
1575705600 9.00 9.00
1575709200 10.00 10.00 14
1575712800 11.00 11.00 15
1575716400 12.00 12.00 15
1575720000 13.00 13.00 16
1575723600 14.00 14.00 17
1575727200 15.00 15.00 17
1575730800 16.00 16.00 17
1575734400 17.00 17.00 16
1575738000 18.00 18.00 16
1575741600 19.00 19.00 15
1575745200 20.00 20.00 15
1575748800 21.00 21.00 15
1575752400 22.00 22.00 14
1575756000 23.00 23.00 14
1575759600 0.00 0.00 14
1575763200 1.00 1.00
1575766800 2.00 2.00 14
1575770400 3.00 3.00 14
1575774000 4.00 4.00 14
1575777600 5.00 5.00

Wir danken unserem Partner:

Aktuellste Messwerte

Wettercharakter
Wetter: meist klar
Temperatur
14 °C
Feuchtigkeit
75 %
Wind
5 km/hWindrichtung: Ost
Luftdruck
1021 hPa
Messzeit: 8. Dezember 2019, 6.00Datenquelle: METAR

Weitere Messstationen in der Nähe

Messstation Temperatur Entfernung
Cagliari 7 °C 43 km
Decimomannu 6 °C 55 km
Capo Bellavista 11 °C 94 km
Olbia 12 °C 200 km
Alghero 7 °C 200 km
Bizerta 11 °C 207 km
Tabarka 13 °C 248 km

Wind

Windrichtung Böen Mittelwind
° km/h km/h
1575694800 6.00 5.00 - 6.00 250° 10
1575698400 7.00 6.00 - 7.00 260° 25
1575702000 8.00 7.00 - 8.00 260° 30
1575705600 9.00 8.00 - 9.00
1575709200 10.00 9.00 - 10.00 270° 20
1575712800 11.00 10.00 - 11.00 260° 30
1575716400 12.00 11.00 - 12.00 260° 30
1575720000 13.00 12.00 - 13.00 260° 30
1575723600 14.00 13.00 - 14.00 270° 30
1575727200 15.00 14.00 - 15.00 260° 30
1575730800 16.00 15.00 - 16.00 270° 30
1575734400 17.00 16.00 - 17.00 300° 15
1575738000 18.00 17.00 - 18.00 260° 30
1575741600 19.00 18.00 - 19.00 320° 20
1575745200 20.00 19.00 - 20.00 260° 20
1575748800 21.00 20.00 - 21.00 270° 10
1575752400 22.00 21.00 - 22.00 260° 10
1575756000 23.00 22.00 - 23.00 280° 15
1575759600 0.00 23.00 - 0.00 270° 15
1575763200 1.00 0.00 - 1.00
1575766800 2.00 1.00 - 2.00 180° 10
1575770400 3.00 2.00 - 3.00 60° 45
1575774000 4.00 3.00 - 4.00 120° 5
1575777600 5.00 4.00 - 5.00

Ihre Wetterstation

Fehlt Ihre Wetterstation auf unserem Portal?

Schreiben Sie an network@meteonews.ch

Klima

Wann ist es am wärmsten? Wann regnet es am wenigsten? Unsere Klimadaten geben Auskunft.